sensor_id;sensor_type;location;lat;lon;timestamp;P1;durP1;ratioP1;P2;durP2;ratioP2
46365;SDS011;32073;49.166;8.076;2022-12-18T00:00:42;38.38;;;15.55;;
46365;SDS011;32073;49.166;8.076;2022-12-18T00:04:44;37.15;;;15.02;;
46365;SDS011;32073;49.166;8.076;2022-12-18T00:08:45;38.65;;;14.90;;
46365;SDS011;32073;49.166;8.076;2022-12-18T00:12:46;32.17;;;13.38;;
46365;SDS011;32073;49.166;8.076;2022-12-18T00:16:47;39.63;;;14.70;;
46365;SDS011;32073;49.166;8.076;2022-12-18T00:20:47;38.40;;;13.70;;
46365;SDS011;32073;49.166;8.076;2022-12-18T00:24:48;43.33;;;15.15;;
46365;SDS011;32073;49.166;8.076;2022-12-18T00:28:49;38.67;;;14.00;;
46365;SDS011;32073;49.166;8.076;2022-12-18T00:32:51;41.65;;;15.57;;
46365;SDS011;32073;49.166;8.076;2022-12-18T00:36:52;35.72;;;14.50;;
46365;SDS011;32073;49.166;8.076;2022-12-18T00:40:52;43.38;;;15.80;;
46365;SDS011;32073;49.166;8.076;2022-12-18T00:44:53;38.00;;;15.48;;
46365;SDS011;32073;49.166;8.076;2022-12-18T00:48:54;41.22;;;15.00;;
46365;SDS011;32073;49.166;8.076;2022-12-18T00:52:54;38.92;;;14.38;;
46365;SDS011;32073;49.166;8.076;2022-12-18T00:56:55;39.85;;;14.80;;
46365;SDS011;32073;49.166;8.076;2022-12-18T01:00:55;45.53;;;15.98;;
46365;SDS011;32073;49.166;8.076;2022-12-18T01:04:56;42.20;;;16.00;;
46365;SDS011;32073;49.166;8.076;2022-12-18T01:08:57;42.03;;;15.13;;
46365;SDS011;32073;49.166;8.076;2022-12-18T01:12:58;42.95;;;14.52;;
46365;SDS011;32073;49.166;8.076;2022-12-18T01:16:58;46.38;;;15.98;;
46365;SDS011;32073;49.166;8.076;2022-12-18T01:20:59;41.67;;;15.20;;
46365;SDS011;32073;49.166;8.076;2022-12-18T01:25:00;41.67;;;15.93;;
46365;SDS011;32073;49.166;8.076;2022-12-18T01:29:01;41.95;;;14.70;;
46365;SDS011;32073;49.166;8.076;2022-12-18T01:33:03;48.33;;;15.90;;
46365;SDS011;32073;49.166;8.076;2022-12-18T01:37:05;52.40;;;16.75;;
46365;SDS011;32073;49.166;8.076;2022-12-18T01:41:05;47.00;;;15.52;;
46365;SDS011;32073;49.166;8.076;2022-12-18T01:49:13;40.40;;;14.95;;
46365;SDS011;32073;49.166;8.076;2022-12-18T01:53:19;40.72;;;15.07;;
46365;SDS011;32073;49.166;8.076;2022-12-18T01:57:23;39.05;;;15.25;;
46365;SDS011;32073;49.166;8.076;2022-12-18T02:01:24;43.33;;;16.73;;
46365;SDS011;32073;49.166;8.076;2022-12-18T02:05:29;37.38;;;14.07;;
46365;SDS011;32073;49.166;8.076;2022-12-18T02:09:48;41.40;;;15.52;;
46365;SDS011;32073;49.166;8.076;2022-12-18T02:14:04;41.60;;;15.13;;
46365;SDS011;32073;49.166;8.076;2022-12-18T02:18:24;41.47;;;15.07;;
46365;SDS011;32073;49.166;8.076;2022-12-18T02:23:33;43.38;;;15.57;;
46365;SDS011;32073;49.166;8.076;2022-12-18T02:27:15;39.78;;;15.02;;
46365;SDS011;32073;49.166;8.076;2022-12-18T02:31:17;39.15;;;13.98;;
46365;SDS011;32073;49.166;8.076;2022-12-18T02:35:26;38.95;;;14.98;;
46365;SDS011;32073;49.166;8.076;2022-12-18T02:39:30;37.25;;;14.27;;
46365;SDS011;32073;49.166;8.076;2022-12-18T02:43:34;38.20;;;15.05;;
46365;SDS011;32073;49.166;8.076;2022-12-18T02:47:36;35.67;;;13.85;;
46365;SDS011;32073;49.166;8.076;2022-12-18T02:52:24;31.92;;;13.10;;
46365;SDS011;32073;49.166;8.076;2022-12-18T02:56:38;41.10;;;14.47;;
46365;SDS011;32073;49.166;8.076;2022-12-18T03:00:54;39.35;;;14.13;;
46365;SDS011;32073;49.166;8.076;2022-12-18T03:05:21;38.55;;;14.65;;
46365;SDS011;32073;49.166;8.076;2022-12-18T03:09:34;42.00;;;15.85;;
46365;SDS011;32073;49.166;8.076;2022-12-18T03:14:00;40.20;;;15.73;;
46365;SDS011;32073;49.166;8.076;2022-12-18T03:18:02;43.30;;;15.85;;
46365;SDS011;32073;49.166;8.076;2022-12-18T03:22:17;37.92;;;15.60;;
46365;SDS011;32073;49.166;8.076;2022-12-18T03:26:19;44.67;;;15.02;;
46365;SDS011;32073;49.166;8.076;2022-12-18T03:30:24;37.22;;;15.05;;
46365;SDS011;32073;49.166;8.076;2022-12-18T03:34:29;42.80;;;14.65;;
46365;SDS011;32073;49.166;8.076;2022-12-18T03:38:33;37.47;;;14.05;;
46365;SDS011;32073;49.166;8.076;2022-12-18T03:42:37;37.25;;;14.45;;
46365;SDS011;32073;49.166;8.076;2022-12-18T03:51:18;40.85;;;16.05;;
46365;SDS011;32073;49.166;8.076;2022-12-18T03:55:31;36.50;;;13.27;;
46365;SDS011;32073;49.166;8.076;2022-12-18T03:59:34;34.72;;;14.07;;
46365;SDS011;32073;49.166;8.076;2022-12-18T04:03:36;40.13;;;15.95;;
46365;SDS011;32073;49.166;8.076;2022-12-18T04:07:38;33.80;;;13.43;;
46365;SDS011;32073;49.166;8.076;2022-12-18T04:11:43;40.35;;;14.52;;
46365;SDS011;32073;49.166;8.076;2022-12-18T04:15:44;42.67;;;15.35;;
46365;SDS011;32073;49.166;8.076;2022-12-18T04:19:44;39.60;;;15.90;;
46365;SDS011;32073;49.166;8.076;2022-12-18T04:23:45;42.05;;;16.88;;
46365;SDS011;32073;49.166;8.076;2022-12-18T04:27:46;38.83;;;15.63;;
46365;SDS011;32073;49.166;8.076;2022-12-18T04:31:47;44.78;;;15.52;;
46365;SDS011;32073;49.166;8.076;2022-12-18T04:35:47;40.15;;;15.85;;
46365;SDS011;32073;49.166;8.076;2022-12-18T04:39:48;41.53;;;15.23;;
46365;SDS011;32073;49.166;8.076;2022-12-18T04:43:48;39.53;;;15.35;;
46365;SDS011;32073;49.166;8.076;2022-12-18T04:47:49;45.70;;;15.40;;
46365;SDS011;32073;49.166;8.076;2022-12-18T04:51:50;32.28;;;13.75;;
46365;SDS011;32073;49.166;8.076;2022-12-18T04:56:01;36.50;;;14.40;;
46365;SDS011;32073;49.166;8.076;2022-12-18T05:00:03;42.85;;;15.77;;
46365;SDS011;32073;49.166;8.076;2022-12-18T05:04:05;40.92;;;15.90;;
46365;SDS011;32073;49.166;8.076;2022-12-18T05:08:06;37.83;;;16.30;;
46365;SDS011;32073;49.166;8.076;2022-12-18T05:12:07;40.67;;;15.35;;
46365;SDS011;32073;49.166;8.076;2022-12-18T05:16:08;35.42;;;15.30;;
46365;SDS011;32073;49.166;8.076;2022-12-18T05:20:09;37.33;;;14.95;;
46365;SDS011;32073;49.166;8.076;2022-12-18T05:24:10;35.58;;;14.40;;
46365;SDS011;32073;49.166;8.076;2022-12-18T05:28:10;39.08;;;14.82;;
46365;SDS011;32073;49.166;8.076;2022-12-18T05:32:11;38.25;;;14.50;;
46365;SDS011;32073;49.166;8.076;2022-12-18T05:36:12;41.30;;;16.08;;
46365;SDS011;32073;49.166;8.076;2022-12-18T05:40:12;41.67;;;16.55;;
46365;SDS011;32073;49.166;8.076;2022-12-18T05:44:13;41.13;;;18.13;;
46365;SDS011;32073;49.166;8.076;2022-12-18T05:48:14;46.60;;;15.95;;
46365;SDS011;32073;49.166;8.076;2022-12-18T05:52:15;41.50;;;16.83;;
46365;SDS011;32073;49.166;8.076;2022-12-18T05:56:18;35.85;;;15.63;;
46365;SDS011;32073;49.166;8.076;2022-12-18T06:00:21;39.58;;;16.73;;
46365;SDS011;32073;49.166;8.076;2022-12-18T06:04:22;40.95;;;16.63;;
46365;SDS011;32073;49.166;8.076;2022-12-18T06:08:22;41.75;;;16.25;;
46365;SDS011;32073;49.166;8.076;2022-12-18T06:12:23;40.03;;;16.13;;
46365;SDS011;32073;49.166;8.076;2022-12-18T06:16:24;42.00;;;16.85;;
46365;SDS011;32073;49.166;8.076;2022-12-18T06:20:25;44.97;;;16.27;;
46365;SDS011;32073;49.166;8.076;2022-12-18T06:24:26;36.95;;;16.20;;
46365;SDS011;32073;49.166;8.076;2022-12-18T06:28:27;46.55;;;18.02;;
46365;SDS011;32073;49.166;8.076;2022-12-18T06:32:28;45.78;;;17.42;;
46365;SDS011;32073;49.166;8.076;2022-12-18T06:36:28;43.15;;;17.83;;
46365;SDS011;32073;49.166;8.076;2022-12-18T06:40:29;78.22;;;27.95;;
46365;SDS011;32073;49.166;8.076;2022-12-18T06:44:29;130.48;;;39.50;;
46365;SDS011;32073;49.166;8.076;2022-12-18T06:48:30;195.15;;;52.22;;
46365;SDS011;32073;49.166;8.076;2022-12-18T06:52:32;266.05;;;66.47;;
46365;SDS011;32073;49.166;8.076;2022-12-18T06:56:33;178.55;;;50.70;;
46365;SDS011;32073;49.166;8.076;2022-12-18T07:00:34;246.93;;;72.03;;
46365;SDS011;32073;49.166;8.076;2022-12-18T07:04:35;95.03;;;33.28;;
46365;SDS011;32073;49.166;8.076;2022-12-18T07:08:36;69.97;;;27.80;;
46365;SDS011;32073;49.166;8.076;2022-12-18T07:12:36;71.97;;;27.92;;
46365;SDS011;32073;49.166;8.076;2022-12-18T07:16:37;59.85;;;22.40;;
46365;SDS011;32073;49.166;8.076;2022-12-18T07:20:38;74.68;;;27.88;;
46365;SDS011;32073;49.166;8.076;2022-12-18T07:24:39;59.40;;;23.08;;
46365;SDS011;32073;49.166;8.076;2022-12-18T07:28:40;52.53;;;21.08;;
46365;SDS011;32073;49.166;8.076;2022-12-18T07:32:41;54.15;;;19.83;;
46365;SDS011;32073;49.166;8.076;2022-12-18T07:36:42;53.65;;;21.77;;
46365;SDS011;32073;49.166;8.076;2022-12-18T07:40:42;51.97;;;21.35;;
46365;SDS011;32073;49.166;8.076;2022-12-18T07:44:43;50.88;;;20.55;;
46365;SDS011;32073;49.166;8.076;2022-12-18T07:48:44;48.22;;;20.25;;
46365;SDS011;32073;49.166;8.076;2022-12-18T07:52:45;52.38;;;20.05;;
46365;SDS011;32073;49.166;8.076;2022-12-18T07:56:46;45.70;;;18.70;;
46365;SDS011;32073;49.166;8.076;2022-12-18T08:00:47;42.28;;;18.60;;
46365;SDS011;32073;49.166;8.076;2022-12-18T08:04:47;45.08;;;18.33;;
46365;SDS011;32073;49.166;8.076;2022-12-18T08:08:48;47.08;;;18.83;;
46365;SDS011;32073;49.166;8.076;2022-12-18T08:12:49;42.90;;;18.13;;
46365;SDS011;32073;49.166;8.076;2022-12-18T08:16:51;50.10;;;19.17;;
46365;SDS011;32073;49.166;8.076;2022-12-18T08:20:52;40.58;;;17.45;;
46365;SDS011;32073;49.166;8.076;2022-12-18T08:24:52;40.95;;;18.17;;
46365;SDS011;32073;49.166;8.076;2022-12-18T08:28:54;44.17;;;18.52;;
46365;SDS011;32073;49.166;8.076;2022-12-18T08:32:56;39.85;;;16.90;;
46365;SDS011;32073;49.166;8.076;2022-12-18T08:36:57;42.08;;;17.40;;
46365;SDS011;32073;49.166;8.076;2022-12-18T08:41:00;46.88;;;19.67;;
46365;SDS011;32073;49.166;8.076;2022-12-18T08:45:03;46.97;;;18.50;;
46365;SDS011;32073;49.166;8.076;2022-12-18T08:49:06;46.42;;;18.65;;
46365;SDS011;32073;49.166;8.076;2022-12-18T08:53:07;44.88;;;19.23;;
46365;SDS011;32073;49.166;8.076;2022-12-18T08:57:09;46.75;;;18.35;;
46365;SDS011;32073;49.166;8.076;2022-12-18T09:01:10;47.85;;;18.35;;
46365;SDS011;32073;49.166;8.076;2022-12-18T09:05:12;40.80;;;17.40;;
46365;SDS011;32073;49.166;8.076;2022-12-18T09:09:13;42.30;;;19.30;;
46365;SDS011;32073;49.166;8.076;2022-12-18T09:13:14;46.05;;;19.48;;
46365;SDS011;32073;49.166;8.076;2022-12-18T09:17:16;43.80;;;17.90;;
46365;SDS011;32073;49.166;8.076;2022-12-18T09:21:20;52.45;;;21.30;;
46365;SDS011;32073;49.166;8.076;2022-12-18T09:25:21;42.80;;;18.73;;
46365;SDS011;32073;49.166;8.076;2022-12-18T09:29:21;42.53;;;18.58;;
46365;SDS011;32073;49.166;8.076;2022-12-18T09:33:22;51.42;;;19.95;;
46365;SDS011;32073;49.166;8.076;2022-12-18T09:37:23;60.60;;;26.02;;
46365;SDS011;32073;49.166;8.076;2022-12-18T09:45:51;45.22;;;18.73;;
46365;SDS011;32073;49.166;8.076;2022-12-18T09:50:01;39.10;;;18.45;;
46365;SDS011;32073;49.166;8.076;2022-12-18T09:54:12;41.75;;;18.77;;
46365;SDS011;32073;49.166;8.076;2022-12-18T09:58:31;42.35;;;20.02;;
46365;SDS011;32073;49.166;8.076;2022-12-18T10:02:44;183.95;;;66.95;;
46365;SDS011;32073;49.166;8.076;2022-12-18T10:07:09;167.82;;;49.40;;
46365;SDS011;32073;49.166;8.076;2022-12-18T10:16:02;59.73;;;23.57;;
46365;SDS011;32073;49.166;8.076;2022-12-18T10:20:24;47.50;;;20.65;;
46365;SDS011;32073;49.166;8.076;2022-12-18T10:24:39;41.30;;;19.13;;
46365;SDS011;32073;49.166;8.076;2022-12-18T10:29:27;48.47;;;19.77;;
46365;SDS011;32073;49.166;8.076;2022-12-18T10:33:29;45.20;;;20.20;;
46365;SDS011;32073;49.166;8.076;2022-12-18T10:37:32;39.05;;;17.02;;
46365;SDS011;32073;49.166;8.076;2022-12-18T10:41:33;52.88;;;21.75;;
46365;SDS011;32073;49.166;8.076;2022-12-18T10:45:33;67.72;;;29.15;;
46365;SDS011;32073;49.166;8.076;2022-12-18T10:49:35;53.95;;;26.17;;
46365;SDS011;32073;49.166;8.076;2022-12-18T10:53:37;41.63;;;19.02;;
46365;SDS011;32073;49.166;8.076;2022-12-18T10:57:40;58.17;;;23.83;;
46365;SDS011;32073;49.166;8.076;2022-12-18T11:06:01;38.80;;;18.40;;
46365;SDS011;32073;49.166;8.076;2022-12-18T11:10:15;44.47;;;19.38;;
46365;SDS011;32073;49.166;8.076;2022-12-18T11:14:31;40.22;;;17.13;;
46365;SDS011;32073;49.166;8.076;2022-12-18T11:18:41;39.13;;;17.27;;
46365;SDS011;32073;49.166;8.076;2022-12-18T11:22:42;39.20;;;16.00;;
46365;SDS011;32073;49.166;8.076;2022-12-18T11:26:43;40.10;;;16.88;;
46365;SDS011;32073;49.166;8.076;2022-12-18T11:30:45;38.58;;;16.20;;
46365;SDS011;32073;49.166;8.076;2022-12-18T11:34:48;38.00;;;16.02;;
46365;SDS011;32073;49.166;8.076;2022-12-18T11:38:59;36.80;;;15.75;;
46365;SDS011;32073;49.166;8.076;2022-12-18T11:43:10;40.05;;;16.63;;
46365;SDS011;32073;49.166;8.076;2022-12-18T11:51:43;37.88;;;15.95;;
46365;SDS011;32073;49.166;8.076;2022-12-18T12:00:20;36.03;;;16.75;;
46365;SDS011;32073;49.166;8.076;2022-12-18T12:04:30;38.67;;;17.45;;
46365;SDS011;32073;49.166;8.076;2022-12-18T12:08:56;35.28;;;14.88;;
46365;SDS011;32073;49.166;8.076;2022-12-18T12:26:54;86.68;;;31.10;;
46365;SDS011;32073;49.166;8.076;2022-12-18T12:40:17;37.53;;;16.33;;
46365;SDS011;32073;49.166;8.076;2022-12-18T12:44:30;41.17;;;16.17;;
46365;SDS011;32073;49.166;8.076;2022-12-18T12:48:40;41.85;;;16.48;;
46365;SDS011;32073;49.166;8.076;2022-12-18T12:52:50;38.40;;;15.85;;
46365;SDS011;32073;49.166;8.076;2022-12-18T13:05:53;65.63;;;22.70;;
46365;SDS011;32073;49.166;8.076;2022-12-18T13:10:12;48.40;;;18.88;;
46365;SDS011;32073;49.166;8.076;2022-12-18T13:14:20;43.22;;;16.70;;
46365;SDS011;32073;49.166;8.076;2022-12-18T13:18:40;75.35;;;24.83;;
46365;SDS011;32073;49.166;8.076;2022-12-18T13:22:54;60.50;;;20.58;;
46365;SDS011;32073;49.166;8.076;2022-12-18T13:26:55;48.33;;;19.40;;
46365;SDS011;32073;49.166;8.076;2022-12-18T13:30:57;35.97;;;15.32;;
46365;SDS011;32073;49.166;8.076;2022-12-18T13:35:37;40.13;;;15.93;;
46365;SDS011;32073;49.166;8.076;2022-12-18T13:39:34;50.03;;;20.15;;
46365;SDS011;32073;49.166;8.076;2022-12-18T13:43:51;39.00;;;16.27;;
46365;SDS011;32073;49.166;8.076;2022-12-18T13:47:58;42.95;;;19.27;;
46365;SDS011;32073;49.166;8.076;2022-12-18T13:51:58;38.85;;;15.50;;
46365;SDS011;32073;49.166;8.076;2022-12-18T13:55:59;50.78;;;18.83;;
46365;SDS011;32073;49.166;8.076;2022-12-18T14:04:26;37.72;;;16.05;;
46365;SDS011;32073;49.166;8.076;2022-12-18T14:08:32;42.03;;;16.95;;
46365;SDS011;32073;49.166;8.076;2022-12-18T14:12:38;37.65;;;17.60;;
46365;SDS011;32073;49.166;8.076;2022-12-18T14:20:58;39.80;;;17.95;;
46365;SDS011;32073;49.166;8.076;2022-12-18T14:25:21;37.70;;;15.35;;
46365;SDS011;32073;49.166;8.076;2022-12-18T14:29:27;44.22;;;20.05;;
46365;SDS011;32073;49.166;8.076;2022-12-18T14:33:30;40.03;;;19.73;;
46365;SDS011;32073;49.166;8.076;2022-12-18T14:37:30;43.72;;;18.13;;
46365;SDS011;32073;49.166;8.076;2022-12-18T14:41:31;41.80;;;19.42;;
46365;SDS011;32073;49.166;8.076;2022-12-18T14:45:36;55.10;;;22.75;;
46365;SDS011;32073;49.166;8.076;2022-12-18T14:49:41;72.27;;;26.73;;
46365;SDS011;32073;49.166;8.076;2022-12-18T14:53:44;59.72;;;24.30;;
46365;SDS011;32073;49.166;8.076;2022-12-18T14:57:51;53.95;;;23.38;;
46365;SDS011;32073;49.166;8.076;2022-12-18T15:06:21;44.58;;;21.55;;
46365;SDS011;32073;49.166;8.076;2022-12-18T15:10:29;47.83;;;20.73;;
46365;SDS011;32073;49.166;8.076;2022-12-18T15:14:39;37.17;;;17.80;;
46365;SDS011;32073;49.166;8.076;2022-12-18T15:22:42;77.38;;;29.58;;
46365;SDS011;32073;49.166;8.076;2022-12-18T15:26:43;42.95;;;18.13;;
46365;SDS011;32073;49.166;8.076;2022-12-18T15:39:11;50.88;;;22.08;;
46365;SDS011;32073;49.166;8.076;2022-12-18T15:43:13;53.95;;;32.55;;
46365;SDS011;32073;49.166;8.076;2022-12-18T15:47:32;46.10;;;23.77;;
46365;SDS011;32073;49.166;8.076;2022-12-18T15:51:33;44.80;;;22.48;;
46365;SDS011;32073;49.166;8.076;2022-12-18T15:55:38;40.08;;;17.40;;
46365;SDS011;32073;49.166;8.076;2022-12-18T15:59:57;38.85;;;17.63;;
46365;SDS011;32073;49.166;8.076;2022-12-18T16:03:58;40.63;;;18.42;;
46365;SDS011;32073;49.166;8.076;2022-12-18T16:07:58;46.13;;;20.00;;
46365;SDS011;32073;49.166;8.076;2022-12-18T16:11:59;40.25;;;19.08;;
46365;SDS011;32073;49.166;8.076;2022-12-18T16:16:00;45.13;;;19.20;;
46365;SDS011;32073;49.166;8.076;2022-12-18T16:20:00;43.72;;;19.40;;
46365;SDS011;32073;49.166;8.076;2022-12-18T16:24:01;41.22;;;18.08;;
46365;SDS011;32073;49.166;8.076;2022-12-18T16:28:02;48.67;;;20.90;;
46365;SDS011;32073;49.166;8.076;2022-12-18T16:32:03;45.38;;;22.13;;
46365;SDS011;32073;49.166;8.076;2022-12-18T16:36:04;51.90;;;28.98;;
46365;SDS011;32073;49.166;8.076;2022-12-18T16:40:05;46.95;;;21.90;;
46365;SDS011;32073;49.166;8.076;2022-12-18T16:44:12;47.60;;;23.23;;
46365;SDS011;32073;49.166;8.076;2022-12-18T16:48:13;43.35;;;19.65;;
46365;SDS011;32073;49.166;8.076;2022-12-18T16:52:13;44.20;;;20.77;;
46365;SDS011;32073;49.166;8.076;2022-12-18T16:56:14;41.70;;;18.05;;
46365;SDS011;32073;49.166;8.076;2022-12-18T17:00:15;44.80;;;19.67;;
46365;SDS011;32073;49.166;8.076;2022-12-18T17:04:17;41.05;;;18.23;;
46365;SDS011;32073;49.166;8.076;2022-12-18T17:08:20;40.00;;;17.85;;
46365;SDS011;32073;49.166;8.076;2022-12-18T17:12:21;46.58;;;19.20;;
46365;SDS011;32073;49.166;8.076;2022-12-18T17:16:22;116.70;;;41.75;;
46365;SDS011;32073;49.166;8.076;2022-12-18T17:20:24;78.18;;;32.80;;
46365;SDS011;32073;49.166;8.076;2022-12-18T17:24:25;51.58;;;21.75;;
46365;SDS011;32073;49.166;8.076;2022-12-18T17:28:26;49.85;;;21.55;;
46365;SDS011;32073;49.166;8.076;2022-12-18T17:32:27;46.75;;;18.95;;
46365;SDS011;32073;49.166;8.076;2022-12-18T17:36:28;48.05;;;21.40;;
46365;SDS011;32073;49.166;8.076;2022-12-18T17:40:32;55.85;;;21.88;;
46365;SDS011;32073;49.166;8.076;2022-12-18T17:44:33;48.88;;;20.15;;
46365;SDS011;32073;49.166;8.076;2022-12-18T17:48:33;79.55;;;31.95;;
46365;SDS011;32073;49.166;8.076;2022-12-18T17:52:34;47.05;;;21.95;;
46365;SDS011;32073;49.166;8.076;2022-12-18T17:56:35;43.58;;;19.48;;
46365;SDS011;32073;49.166;8.076;2022-12-18T18:00:37;45.95;;;19.08;;
46365;SDS011;32073;49.166;8.076;2022-12-18T18:04:38;44.80;;;16.52;;
46365;SDS011;32073;49.166;8.076;2022-12-18T18:08:39;37.33;;;16.05;;
46365;SDS011;32073;49.166;8.076;2022-12-18T18:12:40;47.38;;;18.80;;
46365;SDS011;32073;49.166;8.076;2022-12-18T18:16:59;51.28;;;22.48;;
46365;SDS011;32073;49.166;8.076;2022-12-18T18:21:04;47.72;;;20.08;;
46365;SDS011;32073;49.166;8.076;2022-12-18T18:25:06;45.13;;;21.15;;
46365;SDS011;32073;49.166;8.076;2022-12-18T18:29:08;80.93;;;35.17;;
46365;SDS011;32073;49.166;8.076;2022-12-18T18:33:14;102.68;;;46.40;;
46365;SDS011;32073;49.166;8.076;2022-12-18T18:37:14;70.45;;;33.30;;
46365;SDS011;32073;49.166;8.076;2022-12-18T18:41:15;61.45;;;26.40;;
46365;SDS011;32073;49.166;8.076;2022-12-18T18:45:17;52.03;;;24.42;;
46365;SDS011;32073;49.166;8.076;2022-12-18T18:49:17;55.00;;;22.17;;
46365;SDS011;32073;49.166;8.076;2022-12-18T18:53:18;59.00;;;24.95;;
46365;SDS011;32073;49.166;8.076;2022-12-18T18:57:19;86.45;;;32.00;;
46365;SDS011;32073;49.166;8.076;2022-12-18T19:01:20;54.50;;;23.13;;
46365;SDS011;32073;49.166;8.076;2022-12-18T19:05:21;44.58;;;20.27;;
46365;SDS011;32073;49.166;8.076;2022-12-18T19:09:22;63.33;;;27.90;;
46365;SDS011;32073;49.166;8.076;2022-12-18T19:13:23;44.88;;;19.63;;
46365;SDS011;32073;49.166;8.076;2022-12-18T19:17:27;48.10;;;20.42;;
46365;SDS011;32073;49.166;8.076;2022-12-18T19:21:29;42.05;;;18.25;;
46365;SDS011;32073;49.166;8.076;2022-12-18T19:25:31;64.18;;;28.48;;
46365;SDS011;32073;49.166;8.076;2022-12-18T19:29:36;49.38;;;19.25;;
46365;SDS011;32073;49.166;8.076;2022-12-18T19:33:38;43.85;;;19.55;;
46365;SDS011;32073;49.166;8.076;2022-12-18T19:37:41;55.83;;;25.65;;
46365;SDS011;32073;49.166;8.076;2022-12-18T19:41:42;339.73;;;97.22;;
46365;SDS011;32073;49.166;8.076;2022-12-18T19:45:43;111.55;;;42.75;;
46365;SDS011;32073;49.166;8.076;2022-12-18T19:49:44;61.33;;;27.02;;
46365;SDS011;32073;49.166;8.076;2022-12-18T19:53:45;61.33;;;24.50;;
46365;SDS011;32073;49.166;8.076;2022-12-18T19:57:46;58.38;;;25.17;;
46365;SDS011;32073;49.166;8.076;2022-12-18T20:01:46;54.60;;;22.17;;
46365;SDS011;32073;49.166;8.076;2022-12-18T20:05:49;52.45;;;22.45;;
46365;SDS011;32073;49.166;8.076;2022-12-18T20:09:49;64.00;;;28.25;;
46365;SDS011;32073;49.166;8.076;2022-12-18T20:13:50;52.70;;;22.05;;
46365;SDS011;32073;49.166;8.076;2022-12-18T20:17:51;41.80;;;18.83;;
46365;SDS011;32073;49.166;8.076;2022-12-18T20:21:52;47.03;;;21.50;;
46365;SDS011;32073;49.166;8.076;2022-12-18T20:25:53;38.85;;;17.42;;
46365;SDS011;32073;49.166;8.076;2022-12-18T20:29:56;44.42;;;18.38;;
46365;SDS011;32073;49.166;8.076;2022-12-18T20:33:56;63.30;;;26.10;;
46365;SDS011;32073;49.166;8.076;2022-12-18T20:37:57;44.17;;;19.25;;
46365;SDS011;32073;49.166;8.076;2022-12-18T20:41:58;40.15;;;18.17;;
46365;SDS011;32073;49.166;8.076;2022-12-18T20:46:00;43.70;;;18.48;;
46365;SDS011;32073;49.166;8.076;2022-12-18T20:50:05;44.20;;;19.08;;
46365;SDS011;32073;49.166;8.076;2022-12-18T20:54:07;51.83;;;20.20;;
46365;SDS011;32073;49.166;8.076;2022-12-18T20:58:07;45.50;;;18.20;;
46365;SDS011;32073;49.166;8.076;2022-12-18T21:02:09;56.42;;;21.75;;
46365;SDS011;32073;49.166;8.076;2022-12-18T21:06:12;41.13;;;18.67;;
46365;SDS011;32073;49.166;8.076;2022-12-18T21:10:15;33.00;;;15.30;;
46365;SDS011;32073;49.166;8.076;2022-12-18T21:14:20;34.90;;;16.52;;
46365;SDS011;32073;49.166;8.076;2022-12-18T21:18:27;74.45;;;29.27;;
46365;SDS011;32073;49.166;8.076;2022-12-18T21:22:28;148.20;;;55.20;;
46365;SDS011;32073;49.166;8.076;2022-12-18T21:26:29;124.82;;;47.20;;
46365;SDS011;32073;49.166;8.076;2022-12-18T21:30:30;62.38;;;27.10;;
46365;SDS011;32073;49.166;8.076;2022-12-18T21:34:31;63.47;;;26.48;;
46365;SDS011;32073;49.166;8.076;2022-12-18T21:38:33;47.00;;;20.80;;
46365;SDS011;32073;49.166;8.076;2022-12-18T21:42:33;43.53;;;19.80;;
46365;SDS011;32073;49.166;8.076;2022-12-18T21:46:52;38.63;;;17.25;;
46365;SDS011;32073;49.166;8.076;2022-12-18T21:50:53;47.60;;;19.08;;
46365;SDS011;32073;49.166;8.076;2022-12-18T21:54:54;91.30;;;34.47;;
46365;SDS011;32073;49.166;8.076;2022-12-18T21:58:55;47.70;;;21.83;;
46365;SDS011;32073;49.166;8.076;2022-12-18T22:02:55;41.58;;;19.30;;
46365;SDS011;32073;49.166;8.076;2022-12-18T22:06:56;44.17;;;20.50;;
46365;SDS011;32073;49.166;8.076;2022-12-18T22:10:57;45.83;;;22.20;;
46365;SDS011;32073;49.166;8.076;2022-12-18T22:14:57;47.72;;;19.38;;
46365;SDS011;32073;49.166;8.076;2022-12-18T22:18:58;41.42;;;20.05;;
46365;SDS011;32073;49.166;8.076;2022-12-18T22:22:59;58.35;;;26.27;;
46365;SDS011;32073;49.166;8.076;2022-12-18T22:27:00;47.33;;;20.40;;
46365;SDS011;32073;49.166;8.076;2022-12-18T22:31:01;67.85;;;26.42;;
46365;SDS011;32073;49.166;8.076;2022-12-18T22:35:02;56.08;;;23.20;;
46365;SDS011;32073;49.166;8.076;2022-12-18T22:39:14;87.40;;;31.58;;
46365;SDS011;32073;49.166;8.076;2022-12-18T22:43:24;81.20;;;28.23;;
46365;SDS011;32073;49.166;8.076;2022-12-18T22:47:25;49.78;;;21.85;;
46365;SDS011;32073;49.166;8.076;2022-12-18T22:51:25;46.35;;;19.42;;
46365;SDS011;32073;49.166;8.076;2022-12-18T22:55:26;44.55;;;18.17;;
46365;SDS011;32073;49.166;8.076;2022-12-18T22:59:26;42.38;;;18.25;;
46365;SDS011;32073;49.166;8.076;2022-12-18T23:03:27;37.78;;;16.38;;
46365;SDS011;32073;49.166;8.076;2022-12-18T23:07:28;41.35;;;17.70;;
46365;SDS011;32073;49.166;8.076;2022-12-18T23:11:28;37.22;;;16.15;;
46365;SDS011;32073;49.166;8.076;2022-12-18T23:15:29;36.95;;;16.27;;
46365;SDS011;32073;49.166;8.076;2022-12-18T23:19:30;38.33;;;17.60;;
46365;SDS011;32073;49.166;8.076;2022-12-18T23:23:32;36.22;;;16.08;;
46365;SDS011;32073;49.166;8.076;2022-12-18T23:27:36;38.03;;;16.70;;
46365;SDS011;32073;49.166;8.076;2022-12-18T23:31:37;35.97;;;15.63;;
46365;SDS011;32073;49.166;8.076;2022-12-18T23:35:38;34.55;;;16.60;;
46365;SDS011;32073;49.166;8.076;2022-12-18T23:39:39;34.33;;;15.90;;
46365;SDS011;32073;49.166;8.076;2022-12-18T23:43:40;37.22;;;16.73;;
46365;SDS011;32073;49.166;8.076;2022-12-18T23:47:41;38.25;;;15.88;;
46365;SDS011;32073;49.166;8.076;2022-12-18T23:51:42;37.20;;;16.48;;
46365;SDS011;32073;49.166;8.076;2022-12-18T23:55:43;33.58;;;15.48;;
46365;SDS011;32073;49.166;8.076;2022-12-18T23:59:44;33.55;;;15.40;;
